Time;durP1;ratioP1;P1;durP2;ratioP2;P2;SDS_P1;SDS_P2;PMS_P1;PMS_P2;Temp;Humidity;BMP_temperature;BMP_pressure;BME280_temperature;BME280_humidity;BME280_pressure;Samples;Min_cycle;Max_cycle;Signal;HPM_P1;HPM_P2
2023/08/24 00:02:06;;;;;;;182.48;175.13;;;;;;;29.22;37.30;101693.59;5043111;28;20544;-69
2023/08/24 00:04:32;;;;;;;177.75;170.48;;;;;;;29.20;37.07;101707.06;5047456;28;20138;-69
2023/08/24 00:06:57;;;;;;;183.13;175.73;;;;;;;29.18;37.16;101699.06;5044931;28;20443;-69
2023/08/24 00:09:22;;;;;;;178.30;171.07;;;;;;;29.15;37.12;101685.03;5042806;28;20034;-69
2023/08/24 00:11:48;;;;;;;182.93;175.52;;;;;;;29.12;37.07;101675.41;5044223;28;20042;-69
2023/08/24 00:14:13;;;;;;;182.35;174.98;;;;;;;29.10;37.25;101683.28;5047125;28;20036;-69
2023/08/24 00:16:39;;;;;;;183.32;175.90;;;;;;;29.08;37.06;101680.03;5045582;28;20119;-69
2023/08/24 00:19:04;;;;;;;179.68;172.40;;;;;;;29.05;37.08;101683.47;5038506;28;20464;-71
2023/08/24 00:21:30;;;;;;;180.93;173.65;;;;;;;29.02;37.10;101684.16;5045632;28;20052;-69
2023/08/24 00:23:56;;;;;;;177.82;170.50;;;;;;;29.00;37.19;101678.94;5037703;28;20037;-69
2023/08/24 00:26:21;;;;;;;179.43;172.18;;;;;;;28.97;37.19;101670.50;5043977;28;20033;-69
2023/08/24 00:28:47;;;;;;;176.07;168.88;;;;;;;28.95;37.41;101678.38;5047293;28;20124;-69
2023/08/24 00:31:15;;;;;;;179.32;172.02;;;;;;;28.92;37.20;101677.09;5047875;28;20114;-69
2023/08/24 00:33:40;;;;;;;177.05;169.73;;;;;;;28.90;37.52;101673.84;5044961;28;20032;-69
2023/08/24 00:36:05;;;;;;;176.30;169.13;;;;;;;28.88;37.43;101676.16;5048922;28;20028;-68
2023/08/24 00:38:31;;;;;;;175.75;168.55;;;;;;;28.86;37.09;101661.78;5045961;28;20044;-70
2023/08/24 00:40:58;;;;;;;175.13;167.93;;;;;;;28.82;37.37;101658.88;5045748;28;20048;-68
2023/08/24 00:43:25;;;;;;;173.17;165.97;;;;;;;28.81;37.17;101662.03;5046935;28;20060;-68
2023/08/24 00:45:52;;;;;;;178.50;171.20;;;;;;;28.78;37.36;101659.91;5041733;28;20093;-69
2023/08/24 00:48:18;;;;;;;179.10;171.80;;;;;;;28.76;37.35;101667.81;5045296;28;20033;-68
2023/08/24 00:50:44;;;;;;;173.38;166.23;;;;;;;28.73;37.47;101662.91;5036014;28;20137;-68
2023/08/24 00:53:10;;;;;;;175.32;168.15;;;;;;;28.69;37.13;101652.47;5048426;28;20454;-68
2023/08/24 00:55:35;;;;;;;178.23;171.00;;;;;;;28.68;37.40;101662.00;5048428;28;20041;-68
2023/08/24 00:58:02;;;;;;;176.65;169.48;;;;;;;28.65;37.53;101656.28;5040798;28;20071;-68
2023/08/24 01:00:28;;;;;;;179.45;172.15;;;;;;;28.63;37.22;101656.66;5046197;28;20048;-69
2023/08/24 01:02:54;;;;;;;172.30;165.23;;;;;;;28.62;37.66;101659.75;5044347;28;20059;-69
2023/08/24 01:05:19;;;;;;;171.50;164.40;;;;;;;28.57;37.48;101649.66;5046630;28;20041;-69
2023/08/24 01:07:45;;;;;;;175.73;168.57;;;;;;;28.55;37.41;101651.16;5043597;28;20033;-69
2023/08/24 01:10:11;;;;;;;173.45;166.10;;;;;;;28.52;37.48;101660.19;5041804;28;20033;-68
2023/08/24 01:13:04;;;;;;;172.02;165.00;;;;;;;28.48;37.27;101652.56;5041311;28;20074;-68
2023/08/24 01:15:58;;;;;;;168.50;161.60;;;;;;;28.46;37.33;101648.50;5036600;28;20114;-69
2023/08/24 01:18:26;;;;;;;171.77;164.68;;;;;;;28.43;37.76;101651.94;5043644;28;20086;-69
2023/08/24 01:20:54;;;;;;;176.27;168.98;;;;;;;28.40;37.69;101649.81;5039476;28;20045;-69
2023/08/24 01:23:44;;;;;;;171.20;164.05;;;;;;;28.35;37.80;101653.66;5045193;28;20049;-69
2023/08/24 01:26:17;;;;;;;167.70;160.70;;;;;;;28.34;37.86;101665.91;5044156;28;20385;-69
2023/08/24 01:28:44;;;;;;;166.60;159.52;;;;;;;28.32;37.68;101653.50;5041411;28;20033;-69
2023/08/24 01:31:10;;;;;;;171.90;164.88;;;;;;;28.30;37.69;101651.09;5047838;28;20048;-69
2023/08/24 01:33:36;;;;;;;170.98;163.98;;;;;;;28.28;37.70;101650.59;5040360;28;20033;-69
2023/08/24 01:36:01;;;;;;;170.75;163.75;;;;;;;28.24;37.63;101639.34;5039689;28;20461;-69
2023/08/24 01:38:27;;;;;;;168.80;161.70;;;;;;;28.24;37.65;101644.09;5047474;28;20492;-69
2023/08/24 01:41:00;;;;;;;168.65;161.68;;;;;;;28.22;37.67;101646.41;5034199;28;20488;-68
2023/08/24 01:43:29;;;;;;;175.15;167.80;;;;;;;28.19;37.71;101655.41;5047858;28;20032;-69
2023/08/24 01:45:57;;;;;;;170.05;163.00;;;;;;;28.18;37.63;101656.59;5044907;28;20094;-69
2023/08/24 01:48:24;;;;;;;166.57;159.68;;;;;;;28.15;37.80;101662.78;5037760;28;20458;-68
2023/08/24 01:50:51;;;;;;;166.05;159.27;;;;;;;28.13;37.95;101649.28;5044052;28;20435;-69
2023/08/24 01:53:17;;;;;;;168.50;161.30;;;;;;;28.10;37.95;101633.28;5042713;28;20037;-69
2023/08/24 01:55:44;;;;;;;165.30;158.40;;;;;;;28.09;38.01;101630.84;5039368;28;20107;-69
2023/08/24 01:58:09;;;;;;;167.60;160.65;;;;;;;28.07;37.79;101633.94;5041768;28;20470;-68
2023/08/24 02:00:35;;;;;;;167.23;160.32;;;;;;;28.04;37.77;101638.22;5041842;28;20071;-69
2023/08/24 02:03:00;;;;;;;164.98;157.98;;;;;;;28.01;37.78;101641.69;5042152;28;20044;-69
2023/08/24 02:05:27;;;;;;;170.43;163.23;;;;;;;27.99;37.92;101655.09;5045334;28;20041;-69
2023/08/24 02:07:53;;;;;;;172.90;165.77;;;;;;;27.98;37.81;101661.81;5040169;28;20152;-70
2023/08/24 02:10:19;;;;;;;166.55;159.65;;;;;;;27.96;37.82;101649.41;5042509;28;20742;-69
2023/08/24 02:12:45;;;;;;;164.48;157.70;;;;;;;27.94;38.02;101633.09;5042993;28;20033;-69
2023/08/24 02:15:10;;;;;;;163.65;156.80;;;;;;;27.91;37.90;101631.00;5032551;28;20030;-69
2023/08/24 02:17:35;;;;;;;166.63;159.73;;;;;;;27.90;37.91;101640.47;5039641;28;20374;-68
2023/08/24 02:20:01;;;;;;;163.93;157.13;;;;;;;27.87;38.04;101645.88;5044515;28;20512;-68
2023/08/24 02:22:28;;;;;;;165.52;158.75;;;;;;;27.86;38.10;101633.97;5046093;28;20045;-69
2023/08/24 02:24:54;;;;;;;169.10;162.15;;;;;;;27.83;37.98;101629.09;5043247;28;20033;-68
2023/08/24 02:27:19;;;;;;;163.25;156.55;;;;;;;27.82;37.89;101619.13;5046615;28;20527;-70
2023/08/24 02:29:45;;;;;;;163.55;156.65;;;;;;;27.79;38.02;101603.94;5041147;28;20041;-69
2023/08/24 02:32:10;;;;;;;163.10;155.80;;;;;;;27.79;37.91;101595.59;5043995;28;20041;-68
2023/08/24 02:34:36;;;;;;;160.88;154.23;;;;;;;27.78;38.03;101593.19;5044187;28;20035;-68
2023/08/24 02:37:01;;;;;;;167.95;160.25;;;;;;;27.75;38.01;101585.53;5045983;28;20412;-69
2023/08/24 02:39:27;;;;;;;160.98;154.20;;;;;;;27.73;37.94;101579.50;5044876;28;20041;-69
2023/08/24 02:41:52;;;;;;;163.57;156.80;;;;;;;27.70;37.86;101575.47;5045100;28;20071;-70
2023/08/24 02:44:18;;;;;;;162.38;155.57;;;;;;;27.68;38.18;101566.66;5047456;28;20136;-69
2023/08/24 02:46:48;;;;;;;158.32;151.75;;;;;;;27.65;38.13;101547.91;5045029;28;20033;-68
2023/08/24 02:49:13;;;;;;;156.73;150.18;;;;;;;27.63;38.32;101503.81;5043660;28;20067;-68
2023/08/24 02:51:39;;;;;;;162.32;155.32;;;;;;;27.62;38.43;101476.44;5036335;28;20068;-68
2023/08/24 02:54:05;;;;;;;166.20;159.30;;;;;;;27.62;38.31;101468.09;5041372;28;20087;-68
2023/08/24 02:56:30;;;;;;;163.02;156.10;;;;;;;27.59;38.27;101477.94;5042981;28;20033;-68
2023/08/24 02:58:56;;;;;;;158.23;151.43;;;;;;;27.56;38.54;101478.59;5042224;28;20044;-69
2023/08/24 03:01:21;;;;;;;161.98;155.27;;;;;;;27.55;38.23;101476.97;5044111;28;20469;-68
2023/08/24 03:03:46;;;;;;;163.30;156.32;;;;;;;27.53;38.48;101467.38;5046610;28;20242;-69
2023/08/24 03:06:12;;;;;;;154.93;148.02;;;;;;;27.51;38.54;101464.94;5045813;28;20485;-69
2023/08/24 03:08:37;;;;;;;158.23;151.32;;;;;;;27.49;38.15;101464.44;5042488;28;20036;-68
2023/08/24 03:11:03;;;;;;;159.02;152.40;;;;;;;27.47;38.68;101469.53;5032661;28;20037;-69
2023/08/24 03:13:30;;;;;;;160.13;153.32;;;;;;;27.46;38.39;101469.88;5047470;28;20442;-69
2023/08/24 03:15:56;;;;;;;159.88;153.00;;;;;;;27.45;38.75;101473.81;5036531;28;20052;-70
2023/08/24 03:18:21;;;;;;;152.32;145.63;;;;;;;27.42;38.51;101461.44;5039914;28;20110;-68
2023/08/24 03:20:48;;;;;;;157.13;150.38;;;;;;;27.39;38.83;101460.16;5038289;28;20481;-69
2023/08/24 03:23:14;;;;;;;153.50;146.50;;;;;;;27.38;38.68;101454.94;5043981;28;20049;-70
2023/08/24 03:25:41;;;;;;;161.05;154.38;;;;;;;27.37;38.67;101453.31;5040245;28;20112;-69
2023/08/24 03:28:08;;;;;;;154.18;147.38;;;;;;;27.34;38.51;101448.44;5043483;28;20025;-69
2023/08/24 03:30:36;;;;;;;152.77;146.18;;;;;;;27.33;38.66;101447.63;5042989;28;20084;-68
2023/08/24 03:33:02;;;;;;;155.43;148.80;;;;;;;27.31;38.89;101458.25;5041461;28;20033;-68
2023/08/24 03:35:30;;;;;;;152.90;146.48;;;;;;;27.30;38.58;101459.41;5042190;28;20033;-68
2023/08/24 03:37:55;;;;;;;159.17;152.30;;;;;;;27.27;38.54;101454.53;5046731;28;20048;-68
2023/08/24 03:40:21;;;;;;;152.02;145.23;;;;;;;27.25;38.65;101451.28;5040530;28;20029;-69
2023/08/24 03:42:46;;;;;;;153.93;147.07;;;;;;;27.23;38.67;101450.81;5048915;28;20436;-69
2023/08/24 03:45:11;;;;;;;153.35;146.85;;;;;;;27.22;38.71;101451.97;5030304;28;20052;-69
2023/08/24 03:47:37;;;;;;;152.50;145.98;;;;;;;27.20;38.51;101457.03;5045401;28;20764;-69
2023/08/24 03:50:02;;;;;;;153.48;146.98;;;;;;;27.18;38.85;101451.03;5049996;28;20091;-68
2023/08/24 03:52:28;;;;;;;152.13;145.73;;;;;;;27.15;38.89;101458.03;5040055;28;20477;-69
2023/08/24 03:54:53;;;;;;;153.00;146.57;;;;;;;27.14;39.06;101452.81;5043909;28;20038;-69
2023/08/24 03:57:18;;;;;;;156.25;149.60;;;;;;;27.13;38.91;101453.97;5048171;28;20052;-69
2023/08/24 03:59:44;;;;;;;154.20;147.63;;;;;;;27.10;38.85;101455.44;5041879;28;20140;-69
2023/08/24 04:02:09;;;;;;;151.25;144.90;;;;;;;27.09;39.01;101451.06;5045414;28;20408;-70
2023/08/24 04:04:35;;;;;;;156.43;149.77;;;;;;;27.07;38.93;101461.69;5050813;28;22053;-69
2023/08/24 04:07:02;;;;;;;157.05;150.15;;;;;;;27.06;38.90;101453.69;5045877;28;20040;-70
2023/08/24 04:09:27;;;;;;;153.38;146.88;;;;;;;27.04;38.87;101459.59;5043729;28;20041;-70
2023/08/24 04:11:53;;;;;;;148.70;142.40;;;;;;;27.03;39.06;101454.38;5046481;28;20041;-69
2023/08/24 04:14:18;;;;;;;153.15;146.55;;;;;;;27.02;38.95;101452.75;5046232;28;20060;-68
2023/08/24 04:16:43;;;;;;;149.93;143.55;;;;;;;26.99;38.83;101454.25;5040090;28;20105;-69
2023/08/24 04:19:09;;;;;;;153.48;146.93;;;;;;;26.97;39.10;101453.75;5042575;28;20469;-69
2023/08/24 04:21:35;;;;;;;154.10;147.27;;;;;;;26.96;38.91;101447.41;5041661;28;20128;-69
2023/08/24 04:24:00;;;;;;;151.02;144.32;;;;;;;26.94;39.14;101446.13;5043832;28;20040;-69
2023/08/24 04:26:26;;;;;;;149.95;143.63;;;;;;;26.92;39.35;101440.91;5037723;28;20037;-69
2023/08/24 04:28:51;;;;;;;151.75;145.15;;;;;;;26.91;39.08;101449.56;5050107;28;20035;-69
2023/08/24 04:31:16;;;;;;;150.20;143.52;;;;;;;26.89;39.28;101451.88;5042589;28;20091;-69
2023/08/24 04:33:42;;;;;;;152.02;145.57;;;;;;;26.87;39.05;101457.75;5045789;28;20374;-69
2023/08/24 04:36:07;;;;;;;156.23;149.63;;;;;;;26.86;39.00;101455.28;5041999;28;20029;-68
2023/08/24 04:38:33;;;;;;;149.30;142.80;;;;;;;26.84;39.33;101455.66;5044762;28;20033;-69
2023/08/24 04:40:58;;;;;;;153.13;146.65;;;;;;;26.81;39.21;101456.28;5042257;28;20030;-69
2023/08/24 04:43:24;;;;;;;154.95;148.38;;;;;;;26.80;39.11;101465.78;5039920;28;20436;-69
2023/08/24 04:45:54;;;;;;;150.02;142.88;;;;;;;26.79;39.17;101474.41;5043358;28;20063;-69
2023/08/24 04:48:21;;;;;;;147.80;141.45;;;;;;;26.76;39.25;101479.50;5040906;28;20103;-69
2023/08/24 04:50:46;;;;;;;147.27;140.98;;;;;;;26.75;39.38;101471.50;5044391;28;20075;-70
2023/08/24 04:53:14;;;;;;;148.70;142.30;;;;;;;26.73;39.11;101477.38;5039383;28;20041;-69
2023/08/24 04:55:40;;;;;;;144.48;138.23;;;;;;;26.71;39.31;101471.38;5041339;28;20488;-69
2023/08/24 04:58:07;;;;;;;149.02;142.50;;;;;;;26.71;39.43;101470.53;5046001;28;20025;-69
2023/08/24 05:00:33;;;;;;;146.90;140.32;;;;;;;26.68;39.26;101469.25;5043761;28;20037;-69
2023/08/24 05:02:58;;;;;;;147.43;141.07;;;;;;;26.68;39.43;101469.25;5040571;28;20040;-69
2023/08/24 05:05:24;;;;;;;149.35;142.95;;;;;;;26.67;39.43;101466.84;5035668;28;20480;-68
2023/08/24 05:07:49;;;;;;;150.40;143.80;;;;;;;26.65;39.18;101453.31;5047265;28;20056;-69
2023/08/24 05:10:15;;;;;;;146.98;140.55;;;;;;;26.62;39.58;101453.97;5047723;28;20037;-67
2023/08/24 05:12:40;;;;;;;146.15;139.75;;;;;;;26.62;39.59;101447.63;5048466;28;20082;-68
2023/08/24 05:15:06;;;;;;;147.93;141.55;;;;;;;26.60;39.28;101452.69;5049011;28;20470;-68
2023/08/24 05:17:31;;;;;;;143.93;137.70;;;;;;;26.59;39.32;101456.63;5040028;28;20035;-70
2023/08/24 05:19:58;;;;;;;149.73;142.85;;;;;;;26.57;39.42;101437.53;5046779;28;20033;-71
2023/08/24 05:22:23;;;;;;;151.10;144.20;;;;;;;26.54;39.83;101441.81;5043928;28;20056;-69
2023/08/24 05:24:49;;;;;;;150.27;143.20;;;;;;;26.54;39.53;101438.22;5045380;28;20033;-69
2023/08/24 05:27:15;;;;;;;145.38;139.13;;;;;;;26.51;39.66;101434.13;5047393;28;20033;-69
2023/08/24 05:29:41;;;;;;;146.38;139.90;;;;;;;26.50;39.84;101431.69;5039212;28;20037;-69
2023/08/24 05:32:06;;;;;;;145.65;139.13;;;;;;;26.49;39.46;101430.06;5035712;28;20045;-70
2023/08/24 05:34:31;;;;;;;144.63;138.18;;;;;;;26.47;39.97;101437.91;5025779;28;20033;-68
2023/08/24 05:36:57;;;;;;;145.13;138.73;;;;;;;26.45;39.72;101424.38;5039096;28;20049;-69
2023/08/24 05:39:22;;;;;;;146.23;139.93;;;;;;;26.44;39.69;101424.72;5032675;28;20488;-70
2023/08/24 05:41:52;;;;;;;147.13;140.70;;;;;;;26.42;39.66;101413.16;5043008;28;20049;-68
2023/08/24 05:44:18;;;;;;;144.98;138.50;;;;;;;26.40;39.56;101418.22;5035669;28;20043;-70
2023/08/24 05:46:44;;;;;;;143.68;137.40;;;;;;;26.39;39.72;101420.19;5048683;28;20052;-68
2023/08/24 05:49:09;;;;;;;143.88;137.38;;;;;;;26.38;39.75;101412.19;5046305;28;20036;-71
2023/08/24 05:51:34;;;;;;;144.45;137.45;;;;;;;26.38;39.60;101406.66;5038034;28;20059;-69
2023/08/24 05:54:00;;;;;;;146.15;139.27;;;;;;;26.36;40.02;101395.09;5037301;28;20029;-69
2023/08/24 05:56:26;;;;;;;145.18;138.80;;;;;;;26.34;40.01;101401.78;5041086;28;20048;-70
2023/08/24 05:58:51;;;;;;;145.73;139.32;;;;;;;26.33;40.13;101391.03;5050290;28;20094;-68
2023/08/24 06:01:17;;;;;;;151.90;144.85;;;;;;;26.29;39.91;101387.31;5045216;28;20103;-69
2023/08/24 06:03:42;;;;;;;145.30;138.68;;;;;;;26.28;40.30;101386.53;5040229;28;20034;-68
2023/08/24 06:06:09;;;;;;;145.40;138.60;;;;;;;26.26;40.35;101391.56;5044112;28;20041;-68
2023/08/24 06:08:34;;;;;;;145.25;138.55;;;;;;;26.24;40.33;101376.44;5050823;28;20033;-69
2023/08/24 06:11:00;;;;;;;144.68;138.10;;;;;;;26.23;40.25;101377.56;5039668;28;20037;-68
2023/08/24 06:13:25;;;;;;;143.88;137.40;;;;;;;26.23;40.30;101375.63;5040434;28;20041;-68
2023/08/24 06:15:51;;;;;;;146.60;140.05;;;;;;;26.23;40.33;101374.78;5044853;28;20441;-69
2023/08/24 06:18:16;;;;;;;146.45;139.52;;;;;;;26.21;40.34;101372.38;5046193;28;20028;-68
2023/08/24 06:20:42;;;;;;;141.77;134.85;;;;;;;26.21;40.34;101372.38;5041097;28;20465;-68
2023/08/24 06:23:07;;;;;;;144.20;137.20;;;;;;;26.20;40.25;101379.03;5037916;28;20053;-68
2023/08/24 06:25:33;;;;;;;141.93;135.65;;;;;;;26.19;40.50;101371.91;5031889;28;20477;-69
2023/08/24 06:27:59;;;;;;;146.43;139.68;;;;;;;26.19;40.45;101365.56;5038138;28;20473;-67
2023/08/24 06:30:25;;;;;;;146.82;140.30;;;;;;;26.18;40.59;101361.94;5037009;28;20029;-68
2023/08/24 06:32:50;;;;;;;144.43;138.00;;;;;;;26.18;40.52;101367.47;5044874;28;20029;-68
2023/08/24 06:35:16;;;;;;;141.55;135.07;;;;;;;26.18;40.32;101380.53;5034578;28;20025;-70
2023/08/24 06:37:43;;;;;;;146.65;139.65;;;;;;;26.19;40.33;101371.91;5047151;28;20028;-68
2023/08/24 06:40:09;;;;;;;142.18;135.45;;;;;;;26.19;40.62;101377.44;5045017;28;20174;-68
2023/08/24 06:42:34;;;;;;;143.77;136.95;;;;;;;26.19;40.76;101385.75;5043187;28;20528;-68
2023/08/24 06:45:00;;;;;;;143.23;136.70;;;;;;;26.20;40.28;101389.31;5041718;28;20039;-68
2023/08/24 06:47:25;;;;;;;140.65;134.48;;;;;;;26.19;40.51;101385.75;5033741;28;20025;-68
2023/08/24 06:49:51;;;;;;;141.38;135.00;;;;;;;26.18;40.86;101384.09;5045053;28;20039;-68
2023/08/24 06:52:16;;;;;;;141.73;135.43;;;;;;;26.18;40.39;101364.72;5032835;28;20436;-69
2023/08/24 06:54:42;;;;;;;142.85;136.15;;;;;;;26.19;40.64;101363.59;5041624;28;20366;-68
2023/08/24 06:57:07;;;;;;;141.63;135.32;;;;;;;26.18;40.50;101355.59;5034218;28;20029;-69
2023/08/24 06:59:33;;;;;;;146.70;139.80;;;;;;;26.18;40.65;101359.19;5048668;28;20143;-68
2023/08/24 07:01:58;;;;;;;143.38;136.77;;;;;;;26.18;40.64;101358.38;5034496;28;20041;-68
2023/08/24 07:04:25;;;;;;;144.00;137.32;;;;;;;26.16;40.78;101353.19;5043702;28;20033;-68
2023/08/24 07:06:51;;;;;;;143.00;136.00;;;;;;;26.16;41.01;101350.41;5046375;28;20033;-69
2023/08/24 07:09:18;;;;;;;145.93;139.20;;;;;;;26.16;40.88;101350.41;5046500;28;20120;-69
2023/08/24 07:11:43;;;;;;;143.32;136.63;;;;;;;26.17;40.87;101348.44;5041578;28;20037;-69
2023/08/24 07:14:09;;;;;;;146.15;139.63;;;;;;;26.17;40.79;101345.69;5047876;28;20452;-69
2023/08/24 07:16:34;;;;;;;146.45;139.70;;;;;;;26.15;40.84;101348.78;5037038;28;20075;-68
2023/08/24 07:19:00;;;;;;;142.80;136.00;;;;;;;26.14;41.25;101352.69;5048078;28;20033;-68
2023/08/24 07:21:25;;;;;;;144.38;137.75;;;;;;;26.15;41.47;101350.75;5049235;28;20045;-68
2023/08/24 07:23:51;;;;;;;142.15;135.52;;;;;;;26.15;41.45;101350.75;5049363;28;20041;-68
2023/08/24 07:26:16;;;;;;;140.05;133.50;;;;;;;26.14;41.45;101352.69;5045438;28;20045;-68
2023/08/24 07:28:41;;;;;;;140.05;133.25;;;;;;;26.16;41.60;101358.72;5032337;28;20112;-69
2023/08/24 07:31:08;;;;;;;141.30;134.73;;;;;;;26.16;41.39;101347.66;5031510;28;20472;-68
2023/08/24 07:33:33;;;;;;;147.85;140.60;;;;;;;26.15;41.50;101334.94;5044416;28;20056;-68
2023/08/24 07:36:04;;;;;;;148.52;141.15;;;;;;;26.16;41.42;101332.97;5037865;28;20452;-68
2023/08/24 07:38:29;;;;;;;141.88;135.40;;;;;;;26.17;42.00;101342.91;5043978;28;20040;-68
2023/08/24 07:40:55;;;;;;;148.90;141.93;;;;;;;26.18;41.78;101348.09;5039975;28;20088;-68
2023/08/24 07:43:20;;;;;;;140.20;133.80;;;;;;;26.19;41.90;101352.50;5030225;28;20048;-70
2023/08/24 07:45:46;;;;;;;141.77;135.07;;;;;;;26.20;42.01;101347.78;5027665;28;20029;-69
2023/08/24 07:48:11;;;;;;;141.65;135.32;;;;;;;26.22;41.91;101351.03;5036904;28;20381;-68
2023/08/24 07:50:37;;;;;;;147.35;140.32;;;;;;;26.24;41.65;101354.28;5027009;28;20425;-70
2023/08/24 07:53:02;;;;;;;143.00;136.00;;;;;;;26.25;41.94;101358.66;5029972;28;20140;-69
2023/08/24 07:55:27;;;;;;;145.18;138.23;;;;;;;26.28;41.88;101363.53;5036501;28;20044;-69
2023/08/24 07:57:53;;;;;;;144.60;138.05;;;;;;;26.29;41.75;101362.41;5033951;28;20029;-69
2023/08/24 08:00:18;;;;;;;150.55;143.35;;;;;;;26.30;41.76;101350.97;5033979;28;20401;-69
2023/08/24 08:02:44;;;;;;;143.48;136.63;;;;;;;26.32;41.79;101343.13;5036655;28;20041;-69
2023/08/24 08:05:12;;;;;;;147.18;140.35;;;;;;;26.34;42.31;101345.59;5034330;28;20087;-69
2023/08/24 08:07:38;;;;;;;;;;;;;;;26.30;42.43;101342.66;5034617;28;20095;-68
2023/08/24 08:10:04;;;;;;;140.32;133.57;;;;;;;26.39;42.27;101347.34;5028483;28;20568;-70
2023/08/24 08:12:31;;;;;;;146.20;139.35;;;;;;;26.39;42.35;101341.81;5034258;28;20072;-68
2023/08/24 08:14:57;;;;;;;140.83;134.13;;;;;;;26.42;42.21;101336.41;5041140;28;20330;-68
2023/08/24 08:17:23;;;;;;;141.82;135.32;;;;;;;26.46;42.52;101340.13;5038351;28;20465;-69
2023/08/24 08:19:48;;;;;;;146.05;139.23;;;;;;;26.50;42.42;101337.50;5042947;28;20068;-68
2023/08/24 08:22:14;;;;;;;143.18;136.13;;;;;;;26.52;42.67;101324.13;5037989;28;20145;-68
2023/08/24 08:24:39;;;;;;;142.70;136.15;;;;;;;26.56;42.58;101319.56;5030971;28;20029;-70
2023/08/24 08:27:05;;;;;;;140.95;134.45;;;;;;;26.59;42.67;101307.00;5037657;28;20408;-68
2023/08/24 08:29:30;;;;;;;147.02;140.15;;;;;;;26.61;42.63;101293.59;5042476;28;20072;-68
2023/08/24 08:31:56;;;;;;;149.07;141.88;;;;;;;26.65;42.67;101302.88;5036854;28;20465;-69
2023/08/24 08:34:21;;;;;;;146.85;139.93;;;;;;;26.66;42.31;101302.53;5040971;28;20039;-67
2023/08/24 08:36:46;;;;;;;146.43;139.52;;;;;;;26.68;42.70;101297.44;5050988;28;20044;-70
2023/08/24 08:39:13;;;;;;;146.32;139.45;;;;;;;26.71;42.77;101290.41;5034134;28;20401;-67
2023/08/24 08:41:42;;;;;;;147.60;140.80;;;;;;;26.75;42.55;101288.59;5041519;28;20115;-69
2023/08/24 08:44:09;;;;;;;150.27;143.38;;;;;;;26.79;42.48;101283.16;5043509;28;20033;-68
2023/08/24 08:46:34;;;;;;;154.82;147.18;;;;;;;26.80;42.82;101282.84;5041242;28;20457;-69
2023/08/24 08:49:06;;;;;;;147.63;140.93;;;;;;;26.82;42.93;101274.19;5042324;28;20088;-68
2023/08/24 08:51:32;;;;;;;155.00;147.35;;;;;;;26.85;43.11;101268.78;5052198;28;20361;-69
2023/08/24 08:53:57;;;;;;;151.95;144.82;;;;;;;26.88;43.03;101254.22;5049915;28;20045;-69
2023/08/24 08:56:23;;;;;;;150.23;143.55;;;;;;;26.91;42.94;101249.97;5041596;28;20123;-68
2023/08/24 08:58:50;;;;;;;151.40;144.52;;;;;;;26.94;42.77;101240.97;5039540;28;20037;-68
2023/08/24 09:01:17;;;;;;;156.23;148.50;;;;;;;26.97;43.21;101231.97;5034157;28;20083;-69
2023/08/24 09:03:43;;;;;;;154.98;147.57;;;;;;;26.99;43.11;101226.91;5047503;28;20090;-70
2023/08/24 09:06:09;;;;;;;152.32;145.13;;;;;;;27.03;42.96;101227.00;5037112;28;20030;-68
2023/08/24 09:08:34;;;;;;;160.38;152.38;;;;;;;27.04;43.14;101212.81;5034869;28;20373;-68
2023/08/24 09:11:00;;;;;;;151.63;144.60;;;;;;;27.07;43.32;101216.88;5033615;28;20446;-68
2023/08/24 09:13:26;;;;;;;155.77;148.25;;;;;;;27.10;43.12;101203.13;5033927;28;20151;-67
2023/08/24 09:15:53;;;;;;;153.75;146.95;;;;;;;27.12;43.23;101198.03;5037049;28;20110;-68
2023/08/24 09:18:19;;;;;;;154.07;146.98;;;;;;;27.15;43.52;101188.22;5051792;28;20120;-68
2023/08/24 09:20:47;;;;;;;153.32;146.63;;;;;;;27.19;43.43;101187.22;5035855;28;20033;-67
2023/08/24 09:23:20;;;;;;;154.48;147.60;;;;;;;27.21;43.30;101180.50;5045331;28;20048;-68
2023/08/24 09:25:47;;;;;;;160.48;152.68;;;;;;;27.23;43.40;101179.00;5037647;28;20044;-70
2023/08/24 09:28:12;;;;;;;157.77;150.60;;;;;;;27.26;43.77;101180.28;5038401;28;20124;-68
2023/08/24 09:30:38;;;;;;;163.80;156.27;;;;;;;27.28;43.89;101186.28;5031396;28;20120;-69
2023/08/24 09:33:13;;;;;;;155.65;148.15;;;;;;;27.31;43.61;101188.38;5031849;28;20063;-71
2023/08/24 09:35:38;;;;;;;156.38;149.38;;;;;;;27.34;43.43;101199.59;5039346;28;20259;-67
2023/08/24 09:38:20;;;;;;;158.82;151.07;;;;;;;27.35;43.85;101225.38;5049124;28;20035;-69
2023/08/24 09:40:50;;;;;;;156.73;149.20;;;;;;;27.38;43.69;101235.78;5032920;28;20033;-70
2023/08/24 09:43:16;;;;;;;154.10;147.45;;;;;;;27.39;43.40;101246.53;5040546;28;20029;-69
2023/08/24 09:45:53;;;;;;;160.15;152.82;;;;;;;27.43;43.13;101248.63;5042644;28;20040;-67
2023/08/24 09:48:19;;;;;;;159.27;152.13;;;;;;;27.47;43.40;101257.84;5038483;28;20377;-69
2023/08/24 09:50:46;;;;;;;155.93;148.52;;;;;;;27.49;43.12;101266.66;5030890;28;20079;-68
2023/08/24 09:53:18;;;;;;;154.93;148.23;;;;;;;27.51;43.12;101279.00;5039723;28;20029;-68
2023/08/24 09:55:48;;;;;;;160.05;152.55;;;;;;;27.53;43.05;101282.25;5036927;28;20025;-69
2023/08/24 09:58:15;;;;;;;158.60;151.38;;;;;;;27.55;43.10;101288.28;5033561;28;20147;-69
2023/08/24 10:00:42;;;;;;;159.65;152.38;;;;;;;27.58;43.23;101295.09;5045685;28;20039;-68
2023/08/24 10:03:08;;;;;;;157.38;150.65;;;;;;;27.60;43.17;101290.03;5038001;28;20038;-68
2023/08/24 10:05:34;;;;;;;161.32;154.40;;;;;;;27.62;42.73;101293.28;5038480;28;20038;-67
2023/08/24 10:08:01;;;;;;;158.85;152.07;;;;;;;27.65;42.99;101300.09;5046504;28;20033;-67
2023/08/24 10:10:29;;;;;;;160.10;152.95;;;;;;;27.67;42.78;101309.69;5036963;28;20045;-68
2023/08/24 10:13:08;;;;;;;;;;;;;;;27.64;43.14;101307.59;5042718;28;20029;-66
2023/08/24 10:15:36;;;;;;;154.63;147.85;;;;;;;27.69;42.60;101315.69;5031398;28;19912;-69
2023/08/24 10:18:03;;;;;;;162.38;155.15;;;;;;;27.70;42.73;101319.28;5039376;28;20028;-69
2023/08/24 10:20:29;;;;;;;162.43;154.95;;;;;;;27.73;42.99;101313.03;5046431;28;20037;-70
2023/08/24 10:22:57;;;;;;;166.95;158.57;;;;;;;27.75;42.73;101308.78;5035162;28;20525;-69
2023/08/24 10:25:24;;;;;;;157.18;150.15;;;;;;;27.77;43.14;101311.19;5038290;28;20029;-67
2023/08/24 10:27:50;;;;;;;163.05;155.52;;;;;;;27.79;43.16;101306.91;5038988;28;20214;-68
2023/08/24 10:30:17;;;;;;;160.05;153.38;;;;;;;27.79;42.94;101312.44;5042644;28;20025;-70
2023/08/24 10:32:45;;;;;;;159.98;153.10;;;;;;;27.83;42.97;101304.28;5040698;28;20350;-68
2023/08/24 10:35:11;;;;;;;161.40;154.60;;;;;;;27.85;43.01;101309.50;5047750;28;20489;-68
2023/08/24 10:37:36;;;;;;;162.05;155.25;;;;;;;27.87;42.75;101308.00;5032169;28;20036;-69
2023/08/24 10:40:03;;;;;;;162.77;155.77;;;;;;;27.89;42.64;101296.53;5047958;28;20033;-67
2023/08/24 10:42:44;;;;;;;169.45;161.73;;;;;;;27.88;42.66;101295.72;5037430;28;20134;-68
2023/08/24 10:45:10;;;;;;;161.40;154.35;;;;;;;27.92;42.84;101299.44;5030287;28;20472;-68
2023/08/24 10:47:45;;;;;;;163.07;155.90;;;;;;;27.93;42.84;101283.59;5040669;28;20052;-69
2023/08/24 10:50:11;;;;;;;161.57;154.68;;;;;;;27.95;42.71;101284.84;5044284;28;20045;-69
2023/08/24 10:52:39;;;;;;;165.50;158.40;;;;;;;27.96;42.61;101278.13;5041044;28;20116;-69